Time;durP1;ratioP1;P1;durP2;ratioP2;P2;SDS_P1;SDS_P2;PMS_P1;PMS_P2;Temp;Humidity;BMP_temperature;BMP_pressure;BME280_temperature;BME280_humidity;BME280_pressure;Samples;Min_cycle;Max_cycle;Signal;HPM_P1;HPM_P2
2023/09/04 06:00:27;;;;;;;0.13;0.13;;;;;;;18.70;60.21;100487.59;5291316;26;20089;-94
2023/09/04 06:02:54;;;;;;;0.17;0.17;;;;;;;18.75;60.20;100481.22;5329038;26;20397;-94
2023/09/04 06:05:21;;;;;;;0.10;0.10;;;;;;;18.77;60.20;100482.00;5329344;26;20089;-94
2023/09/04 06:07:46;;;;;;;0.88;0.40;;;;;;;18.80;60.21;100485.31;5329187;26;20443;-94
2023/09/04 06:10:12;;;;;;;0.20;0.10;;;;;;;18.81;60.20;100473.81;5347453;26;20153;-95
2023/09/04 06:12:37;;;;;;;0.20;0.20;;;;;;;18.94;60.22;100480.16;5328794;26;20360;-95
2023/09/04 06:15:03;;;;;;;1.17;0.88;;;;;;;18.99;60.21;100483.38;5328947;26;20066;-92
2023/09/04 06:17:28;;;;;;;1.20;0.70;;;;;;;19.10;60.22;100487.19;5328967;26;20344;-93
2023/09/04 06:19:54;;;;;;;0.32;0.20;;;;;;;19.21;60.23;100477.75;5329011;26;20060;-92
2023/09/04 06:22:19;;;;;;;0.00;0.00;;;;;;;19.12;60.22;100483.53;5329523;26;20100;-94
2023/09/04 06:24:45;;;;;;;0.20;0.17;;;;;;;19.31;60.23;100476.28;5330587;26;20337;-92
2023/09/04 06:27:10;;;;;;;0.00;0.00;;;;;;;19.55;60.24;100478.50;5342244;26;20468;-92
2023/09/04 06:29:36;;;;;;;0.13;0.13;;;;;;;19.51;60.24;100477.81;5330469;26;20105;-93
2023/09/04 06:32:01;;;;;;;0.22;0.22;;;;;;;19.77;60.25;100483.41;5328783;26;20059;-93
2023/09/04 06:34:28;;;;;;;0.05;0.05;;;;;;;19.97;60.27;100469.88;5328637;26;20060;-94
2023/09/04 06:36:53;;;;;;;0.90;0.73;;;;;;;19.93;60.26;100476.28;5328912;26;20623;-93
2023/09/04 06:39:19;;;;;;;0.08;0.08;;;;;;;19.95;60.27;100486.75;5328914;26;20125;-93
2023/09/04 06:41:44;;;;;;;0.00;0.00;;;;;;;20.25;60.29;100479.62;5329820;26;20084;-92
2023/09/04 06:44:10;;;;;;;0.40;0.40;;;;;;;20.23;60.27;100486.81;5329747;26;20139;-93
2023/09/04 06:46:35;;;;;;;0.13;0.13;;;;;;;20.41;60.29;100495.47;5329683;26;20058;-94
2023/09/04 06:49:01;;;;;;;0.10;0.10;;;;;;;20.52;60.29;100487.72;5348165;26;20076;-93
2023/09/04 06:51:28;;;;;;;0.25;0.10;;;;;;;20.58;60.30;100486.47;5311210;26;20098;-93
2023/09/04 06:53:54;;;;;;;0.10;0.10;;;;;;;20.83;60.31;100497.25;5311917;26;20052;-93
2023/09/04 06:56:19;;;;;;;0.03;0.03;;;;;;;20.83;60.31;100497.25;5311108;26;20066;-93
2023/09/04 06:58:45;;;;;;;0.20;0.20;;;;;;;20.94;60.32;100497.41;5311294;26;20055;-93
2023/09/04 07:01:10;;;;;;;0.03;0.03;;;;;;;20.96;60.32;100498.16;5311222;26;20095;-94
2023/09/04 07:03:36;;;;;;;0.55;0.55;;;;;;;21.19;60.33;100495.88;5329803;26;20064;-93
2023/09/04 07:06:02;;;;;;;0.13;0.10;;;;;;;21.06;60.32;100501.09;5311330;26;20043;-94
2023/09/04 07:08:30;;;;;;;0.13;0.13;;;;;;;21.39;60.34;100492.81;5311670;26;20154;-93
2023/09/04 07:10:55;;;;;;;0.00;0.00;;;;;;;21.31;60.33;100497.78;5311993;26;20065;-94
2023/09/04 07:13:21;;;;;;;10.77;0.65;;;;;;;21.44;60.34;100496.00;5311431;26;20064;-93
2023/09/04 07:15:46;;;;;;;0.25;0.25;;;;;;;21.54;60.34;100502.41;5311167;26;20071;-94
2023/09/04 07:18:12;;;;;;;0.00;0.00;;;;;;;21.67;60.35;100505.94;5311206;26;20357;-92
2023/09/04 07:20:37;;;;;;;0.20;0.20;;;;;;;21.80;60.37;100506.00;5311311;26;20361;-94
2023/09/04 07:23:03;;;;;;;0.00;0.00;;;;;;;21.82;60.36;100516.50;5329656;26;20100;-92
2023/09/04 07:25:29;;;;;;;0.60;0.40;;;;;;;21.83;60.37;100508.44;5311461;26;20055;-94
2023/09/04 07:27:56;;;;;;;0.00;0.00;;;;;;;22.07;60.37;100505.97;5312919;26;20105;-93
2023/09/04 07:30:21;;;;;;;0.28;0.28;;;;;;;22.02;60.38;100511.56;5312757;26;20353;-93
2023/09/04 07:32:47;;;;;;;0.70;0.57;;;;;;;22.28;60.39;100516.94;5329574;26;20065;-93
2023/09/04 07:35:12;;;;;;;0.30;0.20;;;;;;;22.46;60.39;100520.09;5311087;26;20115;-92
2023/09/04 07:37:38;;;;;;;0.17;0.17;;;;;;;22.48;60.40;100507.59;5329619;26;20056;-94
2023/09/04 07:40:04;;;;;;;0.37;0.37;;;;;;;22.62;60.40;100507.47;5319457;26;20064;-94
2023/09/04 07:42:30;;;;;;;0.30;0.30;;;;;;;22.82;60.42;100508.75;5329015;26;20035;-94
2023/09/04 07:44:55;;;;;;;0.10;0.10;;;;;;;22.84;60.41;100502.38;5341820;26;20091;-92
2023/09/04 07:47:21;;;;;;;0.40;0.15;;;;;;;22.92;60.42;100501.81;5312479;26;20146;-92
2023/09/04 07:49:46;;;;;;;0.00;0.00;;;;;;;22.82;60.41;100501.66;5332922;26;20051;-91
2023/09/04 07:52:12;;;;;;;0.22;0.17;;;;;;;22.95;60.41;100505.13;5356076;26;20400;-93
2023/09/04 07:54:37;;;;;;;0.55;0.52;;;;;;;23.02;60.42;100507.34;5311676;26;20395;-93
2023/09/04 07:57:04;;;;;;;0.20;0.20;;;;;;;23.18;60.43;100502.59;5311280;26;20056;-93
2023/09/04 07:59:30;;;;;;;0.55;0.45;;;;;;;23.28;60.44;100506.31;5311717;26;20078;-93
2023/09/04 08:01:56;;;;;;;0.40;0.40;;;;;;;23.35;60.43;100504.91;5325567;26;20057;-95
2023/09/04 08:04:21;;;;;;;0.15;0.10;;;;;;;23.27;60.44;100499.31;5325607;26;20458;-93
2023/09/04 08:06:47;;;;;;;0.30;0.30;;;;;;;23.43;60.45;100491.06;5307490;26;20119;-94
2023/09/04 08:09:13;;;;;;;0.90;0.73;;;;;;;23.62;60.46;100495.88;5326824;26;20671;-93
2023/09/04 08:11:38;;;;;;;0.10;0.10;;;;;;;23.78;60.46;100497.28;5327024;26;20048;-94
2023/09/04 08:14:04;;;;;;;0.60;0.52;;;;;;;23.81;60.47;100505.03;5309185;26;20313;-94
2023/09/04 08:16:31;;;;;;;0.20;0.20;;;;;;;23.86;60.47;100497.53;5311744;26;20402;-94
2023/09/04 08:18:56;;;;;;;0.28;0.20;;;;;;;23.86;60.47;100505.53;5307805;26;20064;-94
2023/09/04 08:21:22;;;;;;;0.10;0.10;;;;;;;24.08;60.48;100503.91;5307108;26;20048;-93
2023/09/04 08:23:47;;;;;;;0.13;0.10;;;;;;;23.93;60.48;100505.06;5307268;26;20344;-94
2023/09/04 08:26:14;;;;;;;0.47;0.10;;;;;;;23.97;60.48;100510.03;5307293;26;20364;-95
2023/09/04 08:28:40;;;;;;;0.00;0.00;;;;;;;23.82;60.48;100505.88;5325617;26;20424;-94
2023/09/04 08:31:05;;;;;;;1.35;0.35;;;;;;;24.13;60.49;100499.06;5325592;26;20103;-94
2023/09/04 08:33:31;;;;;;;0.00;0.00;;;;;;;24.31;60.50;100499.50;5307349;26;20357;-94
2023/09/04 08:35:56;;;;;;;0.08;0.08;;;;;;;24.47;60.51;100505.34;5325837;26;20112;-94
2023/09/04 08:38:22;;;;;;;0.32;0.32;;;;;;;24.38;60.50;100506.06;5326274;26;20052;-94
2023/09/04 08:40:47;;;;;;;0.10;0.10;;;;;;;24.56;60.51;100504.63;5307369;26;20396;-95
2023/09/04 08:43:17;;;;;;;0.52;0.32;;;;;;;24.55;60.51;100500.25;5307114;26;20397;-94
2023/09/04 08:45:45;;;;;;;0.10;0.10;;;;;;;24.46;60.51;100508.97;5307185;26;20163;-94
2023/09/04 08:48:12;;;;;;;0.00;0.00;;;;;;;24.52;60.50;100497.00;5307993;26;20060;-94
2023/09/04 08:50:37;;;;;;;0.00;0.00;;;;;;;24.53;60.52;100515.50;5307242;26;20048;-94
2023/09/04 08:53:11;;;;;;;0.00;0.00;;;;;;;24.56;60.51;100515.25;5307393;26;20321;-95
2023/09/04 08:55:37;;;;;;;0.00;0.00;;;;;;;24.50;60.50;100505.09;5307319;26;20064;-94
2023/09/04 08:58:04;;;;;;;0.00;0.00;;;;;;;24.59;60.51;100501.72;5307447;26;20106;-95
2023/09/04 09:00:30;;;;;;;0.05;0.05;;;;;;;24.76;60.53;100506.56;5307494;26;20053;-94
2023/09/04 09:02:57;;;;;;;0.00;0.00;;;;;;;24.83;60.54;100501.59;5311137;26;20063;-95
2023/09/04 09:05:22;;;;;;;0.10;0.10;;;;;;;24.84;60.54;100497.09;5310872;26;20118;-94
2023/09/04 09:07:48;;;;;;;0.10;0.10;;;;;;;25.07;60.54;100497.00;5330818;26;20053;-95
2023/09/04 09:10:16;;;;;;;0.20;0.20;;;;;;;25.15;60.54;100495.53;5312247;26;22260;-94
2023/09/04 09:12:42;;;;;;;0.17;0.10;;;;;;;25.02;60.54;100501.00;5331755;26;20066;-94
2023/09/04 09:15:07;;;;;;;0.10;0.10;;;;;;;25.17;60.55;100499.78;5318873;26;20330;-93
2023/09/04 09:17:33;;;;;;;0.05;0.05;;;;;;;25.21;60.54;100503.03;5317703;26;20079;-95
2023/09/04 09:20:01;;;;;;;0.20;0.20;;;;;;;25.30;60.56;100495.13;5329728;26;20060;-94
2023/09/04 09:22:34;;;;;;;0.15;0.15;;;;;;;25.24;60.56;100505.44;5311426;26;20025;-94
2023/09/04 09:25:00;;;;;;;0.65;0.65;;;;;;;25.20;60.55;100494.19;5312901;26;20074;-95
2023/09/04 09:27:27;;;;;;;0.00;0.00;;;;;;;25.47;60.57;100485.75;5311035;26;20074;-94
2023/09/04 09:29:59;;;;;;;1.08;0.95;;;;;;;25.45;60.55;100492.19;5311228;26;20129;-95
2023/09/04 09:32:30;;;;;;;0.25;0.25;;;;;;;25.43;60.56;100488.81;5311654;26;20104;-93
2023/09/04 09:34:57;;;;;;;0.40;0.20;;;;;;;25.38;60.55;100507.84;5310973;26;20056;-93
2023/09/04 09:37:24;;;;;;;0.08;0.08;;;;;;;25.27;60.55;100495.38;5311666;26;20025;-94
2023/09/04 09:39:49;;;;;;;0.43;0.40;;;;;;;25.15;60.55;100495.53;5311307;26;20432;-95
2023/09/04 09:42:20;;;;;;;0.00;0.00;;;;;;;25.22;60.56;100497.59;5311400;26;20099;-95
2023/09/04 09:44:47;;;;;;;0.00;0.00;;;;;;;25.28;60.55;100505.06;5311661;26;20064;-95
2023/09/04 09:47:13;;;;;;;4.40;0.45;;;;;;;25.31;60.56;100504.81;5311023;26;20425;-95
2023/09/04 09:49:42;;;;;;;0.70;0.43;;;;;;;25.41;60.56;100502.25;5328983;26;20056;-95
2023/09/04 09:52:08;;;;;;;0.00;0.00;;;;;;;25.61;60.58;100489.97;5329158;26;20056;-94
2023/09/04 09:54:40;;;;;;;0.30;0.30;;;;;;;25.84;60.58;100499.59;5310898;26;20052;-95
2023/09/04 09:57:08;;;;;;;0.00;0.00;;;;;;;26.01;60.60;100496.31;5311339;26;20458;-96
2023/09/04 09:59:35;;;;;;;0.40;0.40;;;;;;;25.89;60.59;100493.88;5311372;26;20063;-96
2023/09/04 10:02:01;;;;;;;0.20;0.20;;;;;;;25.95;60.59;100480.00;5310933;26;20054;-96
2023/09/04 10:04:27;;;;;;;0.15;0.15;;;;;;;26.07;60.59;100497.66;5310596;26;20483;-94
2023/09/04 10:06:53;;;;;;;0.00;0.00;;;;;;;26.14;60.59;100495.31;5310666;26;20060;-96
2023/09/04 10:09:21;;;;;;;0.85;0.20;;;;;;;26.08;60.59;100485.16;5311568;26;20047;-94
2023/09/04 10:11:46;;;;;;;0.20;0.20;;;;;;;25.94;60.59;100479.16;5310682;26;20416;-95
2023/09/04 10:14:16;;;;;;;0.20;0.20;;;;;;;25.79;60.59;100483.12;5310427;26;20061;-96
2023/09/04 10:16:53;;;;;;;2.33;0.53;;;;;;;25.80;60.58;100481.31;5311158;26;20064;-95
2023/09/04 10:19:18;;;;;;;0.25;0.00;;;;;;;25.95;60.59;100469.31;5329367;26;20480;-94
2023/09/04 10:21:48;;;;;;;0.45;0.43;;;;;;;26.13;60.60;100477.59;5310616;26;20048;-94
2023/09/04 10:24:14;;;;;;;0.00;0.00;;;;;;;26.16;60.61;100478.19;5311168;26;20121;-95
2023/09/04 10:26:50;;;;;;;0.00;0.00;;;;;;;25.90;60.59;100483.06;5311203;26;20103;-94
2023/09/04 10:29:18;;;;;;;0.10;0.10;;;;;;;25.91;60.59;100489.25;5311308;26;20396;-96
2023/09/04 10:31:44;;;;;;;0.10;0.10;;;;;;;25.91;60.59;100473.25;5311152;26;20416;-94
2023/09/04 10:34:09;;;;;;;0.05;0.05;;;;;;;25.84;60.58;100472.91;5311707;26;20070;-94
2023/09/04 10:36:35;;;;;;;0.00;0.00;;;;;;;25.82;60.59;100482.88;5314847;26;20051;-94
2023/09/04 10:39:00;;;;;;;0.00;0.00;;;;;;;25.79;60.59;100482.25;5322382;26;20056;-93
2023/09/04 10:41:27;;;;;;;0.13;0.13;;;;;;;25.93;60.60;100466.78;5345399;26;20031;-94
2023/09/04 10:43:52;;;;;;;0.52;0.40;;;;;;;26.17;60.61;100477.19;5328634;26;20076;-95
2023/09/04 10:46:18;;;;;;;0.00;0.00;;;;;;;26.27;60.61;100474.59;5323383;26;20056;-95
2023/09/04 10:48:48;;;;;;;0.17;0.17;;;;;;;26.23;60.60;100470.47;5311125;26;20052;-95
2023/09/04 10:51:36;;;;;;;0.00;0.00;;;;;;;26.31;60.61;100465.34;5328792;26;20090;-96
2023/09/04 10:54:24;;;;;;;0.00;0.00;;;;;;;26.35;60.62;100471.31;5311195;26;20455;-96
2023/09/04 10:56:59;;;;;;;0.00;0.00;;;;;;;26.71;60.64;100465.41;5310810;26;20105;-95
2023/09/04 10:59:25;;;;;;;0.35;0.35;;;;;;;26.82;60.64;100470.66;5329685;26;20051;-95
2023/09/04 11:01:51;;;;;;;5.22;0.20;;;;;;;27.04;60.65;100461.63;5329535;26;20079;-94
2023/09/04 11:04:46;;;;;;;0.00;0.00;;;;;;;27.29;60.66;100452.22;5310757;26;20064;-95
2023/09/04 11:07:20;;;;;;;0.10;0.10;;;;;;;27.47;60.67;100460.41;5305682;26;20067;-95
2023/09/04 11:09:51;;;;;;;0.00;0.00;;;;;;;26.97;60.65;100463.09;5346872;26;20095;-95
2023/09/04 11:12:24;;;;;;;0.00;0.00;;;;;;;27.05;60.65;100452.59;5310453;26;20067;-96
2023/09/04 11:14:54;;;;;;;0.10;0.10;;;;;;;27.19;60.67;100454.88;5329443;26;20047;-95
2023/09/04 11:17:29;;;;;;;0.65;0.65;;;;;;;26.97;60.65;100440.87;5310529;26;20056;-95
2023/09/04 11:19:55;;;;;;;0.08;0.08;;;;;;;27.10;60.65;100442.34;5310614;26;20030;-95
2023/09/04 11:22:21;;;;;;;0.00;0.00;;;;;;;27.42;60.68;100450.09;5310398;26;20044;-94
2023/09/04 11:24:47;;;;;;;0.00;0.00;;;;;;;27.38;60.67;100451.38;5310151;26;20064;-96
2023/09/04 11:27:12;;;;;;;0.13;0.13;;;;;;;27.08;60.66;100448.81;5310899;26;20111;-96
2023/09/04 11:29:38;;;;;;;0.43;0.17;;;;;;;27.04;60.66;100447.41;5311107;26;20051;-96
2023/09/04 11:32:05;;;;;;;0.10;0.10;;;;;;;26.93;60.64;100451.84;5329782;26;20062;-95
2023/09/04 11:34:31;;;;;;;0.40;0.40;;;;;;;27.06;60.65;100454.28;5312026;26;20070;-96
2023/09/04 11:36:56;;;;;;;0.20;0.20;;;;;;;27.18;60.67;100457.69;5311714;26;20064;-95
2023/09/04 11:39:22;;;;;;;0.13;0.13;;;;;;;26.82;60.64;100459.12;5311361;26;20051;-96
2023/09/04 11:41:49;;;;;;;0.65;0.30;;;;;;;26.59;60.63;100455.81;5311574;26;20043;-96
2023/09/04 11:44:15;;;;;;;0.00;0.00;;;;;;;26.69;60.64;100439.81;5312279;26;20056;-96
2023/09/04 11:46:40;;;;;;;0.05;0.05;;;;;;;26.95;60.66;100434.81;5332242;26;20047;-96
2023/09/04 11:49:06;;;;;;;0.00;0.00;;;;;;;27.14;60.66;100432.22;5312548;26;20104;-96
2023/09/04 11:51:32;;;;;;;0.10;0.10;;;;;;;27.07;60.66;100429.25;5312875;26;20076;-96
2023/09/04 11:53:57;;;;;;;0.10;0.10;;;;;;;27.22;60.67;100437.75;5311762;26;20075;-96
2023/09/04 11:56:23;;;;;;;0.47;0.25;;;;;;;27.17;60.66;100445.31;5311355;26;20214;-95
2023/09/04 11:58:48;;;;;;;0.00;0.00;;;;;;;27.27;60.68;100439.97;5311591;26;20402;-95
2023/09/04 12:01:14;;;;;;;2.37;0.30;;;;;;;27.30;60.67;100432.53;5312421;26;20059;-96
2023/09/04 12:03:39;;;;;;;0.30;0.20;;;;;;;27.22;60.66;100435.06;5313597;26;20097;-95
2023/09/04 12:06:05;;;;;;;0.10;0.03;;;;;;;27.28;60.67;100436.31;5324071;26;20069;-95
2023/09/04 12:08:30;;;;;;;0.03;0.00;;;;;;;27.50;60.68;100428.88;5318360;26;20051;-95
2023/09/04 12:10:56;;;;;;;1.10;0.52;;;;;;;27.82;60.70;100422.41;5314804;26;20058;-96
2023/09/04 12:13:22;;;;;;;0.20;0.20;;;;;;;27.83;60.70;100432.09;5330687;26;20059;-95
2023/09/04 12:15:48;;;;;;;0.00;0.00;;;;;;;27.96;60.71;100411.25;5311416;26;20083;-96
2023/09/04 12:18:14;;;;;;;0.15;0.15;;;;;;;27.98;60.71;100409.28;5311271;26;20056;-95
2023/09/04 12:20:40;;;;;;;0.10;0.10;;;;;;;28.18;60.71;100419.94;5330085;26;20609;-96
2023/09/04 12:23:05;;;;;;;0.30;0.22;;;;;;;28.00;60.70;100409.97;5311706;26;20823;-96
2023/09/04 12:25:38;;;;;;;0.00;0.00;;;;;;;27.83;60.70;100406.19;5311693;26;20174;-96
2023/09/04 12:28:09;;;;;;;0.00;0.00;;;;;;;27.61;60.68;100409.16;5311667;26;20048;-95
2023/09/04 12:30:40;;;;;;;1.15;0.20;;;;;;;27.13;60.66;100410.00;5311681;26;20040;-95
2023/09/04 12:33:09;;;;;;;0.00;0.00;;;;;;;26.93;60.65;100418.94;5311724;26;20060;-95
2023/09/04 12:35:35;;;;;;;0.52;0.52;;;;;;;26.83;60.65;100407.38;5311567;26;20067;-96
2023/09/04 12:38:00;;;;;;;0.00;0.00;;;;;;;27.07;60.66;100405.22;5311798;26;20104;-96
2023/09/04 12:40:26;;;;;;;0.13;0.13;;;;;;;27.24;60.66;100395.66;5313473;26;20353;-95
2023/09/04 12:42:51;;;;;;;0.00;0.00;;;;;;;27.27;60.67;100384.69;5313079;26;20150;-93
2023/09/04 12:45:16;;;;;;;2.05;0.30;;;;;;;27.33;60.67;100404.66;5311527;26;20108;-94
2023/09/04 12:47:42;;;;;;;0.00;0.00;;;;;;;27.18;60.67;100397.06;5311092;26;20052;-95
2023/09/04 12:50:08;;;;;;;0.10;0.10;;;;;;;27.04;60.66;100393.97;5311575;26;20052;-95
2023/09/04 12:52:36;;;;;;;0.00;0.00;;;;;;;27.03;60.66;100397.63;5311637;26;20574;-95
2023/09/04 12:55:03;;;;;;;0.32;0.32;;;;;;;27.14;60.66;100395.66;5312069;26;20116;-95
2023/09/04 12:57:28;;;;;;;1.02;0.62;;;;;;;27.02;60.66;100380.75;5311391;26;20051;-95
2023/09/04 12:59:53;;;;;;;0.20;0.20;;;;;;;27.32;60.67;100381.59;5311195;26;20092;-94
2023/09/04 13:02:21;;;;;;;0.32;0.10;;;;;;;27.23;60.66;100385.13;5310757;26;20074;-95
2023/09/04 13:04:47;;;;;;;0.13;0.13;;;;;;;27.47;60.68;100386.37;5311950;26;20064;-94
2023/09/04 13:07:13;;;;;;;0.20;0.17;;;;;;;27.45;60.68;100388.34;5312021;26;20048;-94
2023/09/04 13:09:38;;;;;;;0.20;0.20;;;;;;;27.13;60.67;100385.94;5311792;26;20428;-94
2023/09/04 13:12:04;;;;;;;0.52;0.25;;;;;;;27.02;60.66;100386.09;5311521;26;20075;-96
2023/09/04 13:14:30;;;;;;;0.10;0.10;;;;;;;26.91;60.65;100383.50;5311730;26;20053;-94
2023/09/04 13:16:55;;;;;;;0.00;0.00;;;;;;;26.93;60.65;100379.69;5312573;26;20058;-95
2023/09/04 13:19:21;;;;;;;0.20;0.20;;;;;;;27.16;60.67;100390.16;5311637;26;20121;-94
2023/09/04 13:21:46;;;;;;;0.10;0.10;;;;;;;27.18;60.67;100374.81;5330731;26;20064;-94
2023/09/04 13:24:12;;;;;;;0.00;0.00;;;;;;;27.31;60.67;100371.88;5311824;26;20397;-96
2023/09/04 13:26:37;;;;;;;0.00;0.00;;;;;;;27.12;60.67;100376.25;5330754;26;20428;-94
2023/09/04 13:29:02;;;;;;;2.35;0.30;;;;;;;27.04;60.66;100377.94;5332575;26;20060;-94
2023/09/04 13:31:28;;;;;;;0.03;0.00;;;;;;;27.02;60.66;100370.06;5326614;26;20103;-96
2023/09/04 13:33:53;;;;;;;0.20;0.10;;;;;;;27.08;60.66;100365.97;5316080;26;20056;-95
2023/09/04 13:36:19;;;;;;;1.25;0.90;;;;;;;27.40;60.67;100366.53;5330119;26;20318;-94
2023/09/04 13:38:44;;;;;;;0.00;0.00;;;;;;;27.45;60.68;100358.09;5313356;26;20066;-94
2023/09/04 13:41:10;;;;;;;0.00;0.00;;;;;;;27.58;60.69;100347.94;5311182;26;20056;-93
2023/09/04 13:43:35;;;;;;;0.47;0.37;;;;;;;27.74;60.69;100356.25;5332199;26;20068;-94
2023/09/04 13:46:01;;;;;;;0.30;0.30;;;;;;;27.73;60.70;100359.91;5327342;26;20041;-95
2023/09/04 13:48:29;;;;;;;0.15;0.15;;;;;;;27.33;60.67;100353.88;5328377;26;20361;-95
2023/09/04 13:50:55;;;;;;;0.00;0.00;;;;;;;27.34;60.68;100353.72;5336919;26;20064;-95
2023/09/04 13:53:21;;;;;;;0.47;0.20;;;;;;;27.34;60.68;100348.38;5311996;26;20389;-95
2023/09/04 13:55:48;;;;;;;0.10;0.10;;;;;;;27.29;60.68;100349.81;5311275;26;20048;-94
2023/09/04 13:58:13;;;;;;;0.30;0.30;;;;;;;27.40;60.68;100346.97;5311459;26;20052;-95
2023/09/04 14:00:41;;;;;;;0.35;0.28;;;;;;;27.28;60.67;100345.44;5311192;26;20075;-94
2023/09/04 14:03:09;;;;;;;2.67;0.50;;;;;;;27.43;60.68;100346.66;5311865;26;20024;-95
2023/09/04 14:05:35;;;;;;;0.00;0.00;;;;;;;27.21;60.67;100353.19;5311797;26;20056;-94
2023/09/04 14:08:00;;;;;;;12.52;0.90;;;;;;;27.08;60.66;100353.47;5311138;26;20407;-93
2023/09/04 14:10:26;;;;;;;0.00;0.00;;;;;;;27.01;60.66;100346.16;5311091;26;20168;-95
2023/09/04 14:12:51;;;;;;;0.05;0.05;;;;;;;26.99;60.66;100343.62;5311152;26;20387;-95
2023/09/04 14:15:17;;;;;;;0.28;0.28;;;;;;;26.95;60.66;100346.66;5329249;26;20443;-95
2023/09/04 14:17:42;;;;;;;0.00;0.00;;;;;;;26.95;60.66;100336.81;5310986;26;20048;-94
2023/09/04 14:20:08;;;;;;;0.05;0.00;;;;;;;27.09;60.66;100339.09;5310335;26;20399;-94
2023/09/04 14:22:34;;;;;;;0.00;0.00;;;;;;;27.25;60.66;100337.72;5311084;26;20078;-94
2023/09/04 14:24:59;;;;;;;0.20;0.10;;;;;;;27.42;60.68;100337.81;5311226;26;20096;-94
2023/09/04 14:27:24;;;;;;;0.00;0.00;;;;;;;27.44;60.68;100343.00;5310911;26;20078;-94
2023/09/04 14:29:50;;;;;;;0.85;0.85;;;;;;;27.48;60.68;100347.12;5310193;26;20079;-95
2023/09/04 14:32:16;;;;;;;0.00;0.00;;;;;;;27.64;60.70;100339.34;5310871;26;20354;-94
2023/09/04 14:34:41;;;;;;;0.17;0.17;;;;;;;27.41;60.68;100343.31;5329045;26;20067;-93
2023/09/04 14:37:06;;;;;;;0.20;0.20;;;;;;;27.46;60.68;100354.44;5311755;26;20099;-94
2023/09/04 14:39:32;;;;;;;0.00;0.00;;;;;;;27.49;60.69;100338.94;5310531;26;20114;-95
2023/09/04 14:41:57;;;;;;;0.30;0.30;;;;;;;27.45;60.68;100344.72;5310968;26;20080;-96
2023/09/04 14:44:24;;;;;;;0.03;0.03;;;;;;;27.47;60.68;100342.75;5310743;26;20075;-95
2023/09/04 14:46:49;;;;;;;0.10;0.10;;;;;;;27.62;60.69;100337.78;5311198;26;20056;-94
2023/09/04 14:49:15;;;;;;;0.00;0.00;;;;;;;27.42;60.67;100350.34;5310680;26;20424;-94
2023/09/04 14:51:40;;;;;;;0.30;0.20;;;;;;;27.19;60.67;100355.13;5329769;26;20071;-94
2023/09/04 14:54:06;;;;;;;0.20;0.20;;;;;;;26.96;60.66;100359.03;5311596;26;20071;-94
2023/09/04 14:56:31;;;;;;;0.00;0.00;;;;;;;26.91;60.65;100354.09;5323874;26;20153;-93
2023/09/04 14:58:58;;;;;;;0.08;0.08;;;;;;;26.95;60.66;100352.84;5318532;26;20060;-93
2023/09/04 15:01:24;;;;;;;0.52;0.35;;;;;;;27.07;60.66;100349.09;5331875;26;20021;-95
2023/09/04 15:03:49;;;;;;;0.00;0.00;;;;;;;27.16;60.67;100344.72;5311332;26;20318;-93
2023/09/04 15:06:15;;;;;;;0.22;0.22;;;;;;;27.25;60.67;100343.06;5311525;26;20060;-94
2023/09/04 15:08:40;;;;;;;0.00;0.00;;;;;;;27.14;60.67;100342.19;5311204;26;20091;-94
2023/09/04 15:11:10;;;;;;;0.03;0.03;;;;;;;27.05;60.66;100348.41;5311440;26;20087;-93
2023/09/04 15:13:35;;;;;;;0.00;0.00;;;;;;;27.05;60.66;100347.56;5330056;26;20846;-93
2023/09/04 15:16:01;;;;;;;0.00;0.00;;;;;;;27.08;60.67;100353.47;5311700;26;20052;-93
2023/09/04 15:18:29;;;;;;;0.17;0.10;;;;;;;27.12;60.66;100348.66;5352224;26;20059;-95
2023/09/04 15:20:57;;;;;;;0.00;0.00;;;;;;;26.92;60.65;100358.47;5313247;26;20064;-94
2023/09/04 15:23:23;;;;;;;0.10;0.10;;;;;;;26.76;60.64;100361.69;5313671;26;20056;-94
2023/09/04 15:25:50;;;;;;;0.17;0.15;;;;;;;26.67;60.65;100369.66;5314500;26;20052;-94
2023/09/04 15:28:15;;;;;;;0.00;0.00;;;;;;;26.49;60.64;100364.12;5324263;26;20024;-94
2023/09/04 15:30:41;;;;;;;0.15;0.15;;;;;;;26.37;60.63;100371.41;5320433;26;20077;-94
2023/09/04 15:33:07;;;;;;;0.08;0.08;;;;;;;26.26;60.62;100372.34;5331417;26;20049;-92
2023/09/04 15:35:32;;;;;;;0.10;0.10;;;;;;;26.16;60.62;100366.09;5330140;26;20039;-94
2023/09/04 15:37:58;;;;;;;0.10;0.10;;;;;;;26.27;60.62;100368.69;5348162;26;20068;-93
2023/09/04 15:40:24;;;;;;;0.25;0.20;;;;;;;26.24;60.62;100371.59;5311427;26;20109;-94
2023/09/04 15:42:50;;;;;;;0.43;0.30;;;;;;;26.31;60.63;100370.09;5330305;26;20092;-95
2023/09/04 15:45:16;;;;;;;0.57;0.35;;;;;;;26.18;60.62;100379.31;5311682;26;20074;-93
2023/09/04 15:47:43;;;;;;;0.00;0.00;;;;;;;26.26;60.63;100368.78;5329476;26;20398;-94
2023/09/04 15:50:09;;;;;;;0.90;0.30;;;;;;;26.25;60.63;100367.94;5310482;26;20063;-94
2023/09/04 15:52:34;;;;;;;0.52;0.52;;;;;;;26.37;60.63;100371.41;5329292;26;20081;-92
2023/09/04 15:55:01;;;;;;;0.10;0.10;;;;;;;26.44;60.63;100361.03;5330114;26;20041;-94
2023/09/04 15:57:26;;;;;;;0.00;0.00;;;;;;;26.46;60.62;100365.25;5309457;26;20060;-93
2023/09/04 15:59:52;;;;;;;0.00;0.00;;;;;;;26.30;60.62;100367.56;5310260;26;20099;-92
2023/09/04 16:02:17;;;;;;;0.20;0.20;;;;;;;26.28;60.62;100372.22;5328434;26;20069;-93
2023/09/04 16:04:43;;;;;;;0.00;0.00;;;;;;;26.16;60.62;100376.78;5309887;26;20083;-94
2023/09/04 16:07:08;;;;;;;0.20;0.20;;;;;;;26.18;60.62;100369.47;5310105;26;20060;-94
2023/09/04 16:09:34;;;;;;;0.00;0.00;;;;;;;26.28;60.62;100367.72;5309895;26;20111;-93
2023/09/04 16:12:00;;;;;;;0.10;0.10;;;;;;;26.25;60.63;100364.44;5309332;26;20056;-93
2023/09/04 16:14:25;;;;;;;0.52;0.32;;;;;;;26.26;60.63;100379.47;5309750;26;20048;-91
2023/09/04 16:16:51;;;;;;;0.10;0.10;;;;;;;26.20;60.62;100377.34;5328487;26;20108;-94
2023/09/04 16:19:18;;;;;;;0.20;0.20;;;;;;;26.14;60.61;100388.56;5328528;26;20053;-92
2023/09/04 16:21:44;;;;;;;0.00;0.00;;;;;;;26.20;60.62;100380.84;5316360;26;20029;-90
2023/09/04 16:24:10;;;;;;;0.10;0.10;;;;;;;26.06;60.61;100391.06;5315709;26;20060;-93
2023/09/04 16:26:39;;;;;;;0.10;0.10;;;;;;;26.05;60.61;100384.03;5310579;26;20075;-93
2023/09/04 16:29:08;;;;;;;0.15;0.15;;;;;;;25.82;60.59;100391.34;5329384;26;20072;-93
2023/09/04 16:31:34;;;;;;;4.37;0.30;;;;;;;25.91;60.60;100385.22;5310073;26;20020;-95
2023/09/04 16:34:03;;;;;;;0.20;0.20;;;;;;;25.85;60.61;100386.59;5310055;26;20431;-92
2023/09/04 16:36:30;;;;;;;0.00;0.00;;;;;;;25.83;60.60;100398.38;5311475;26;20079;-93
2023/09/04 16:38:56;;;;;;;0.10;0.10;;;;;;;25.68;60.59;100395.19;5310413;26;20056;-94
2023/09/04 16:41:22;;;;;;;0.00;0.00;;;;;;;25.55;60.59;100402.47;5309138;26;20067;-94
2023/09/04 16:43:48;;;;;;;0.00;0.00;;;;;;;25.49;60.59;100400.31;5309681;26;20099;-94
2023/09/04 16:46:13;;;;;;;1.00;0.47;;;;;;;25.40;60.58;100410.78;5307836;26;20124;-93
2023/09/04 16:48:39;;;;;;;0.10;0.10;;;;;;;25.41;60.58;100411.62;5308215;26;20107;-92
2023/09/04 16:51:04;;;;;;;0.25;0.15;;;;;;;25.33;60.57;100404.28;5309685;26;20052;-94
2023/09/04 16:53:30;;;;;;;0.30;0.20;;;;;;;25.33;60.57;100414.94;5322816;26;20020;-94
2023/09/04 16:55:56;;;;;;;0.20;0.20;;;;;;;25.19;60.57;100407.25;5341979;26;20051;-92
2023/09/04 16:58:22;;;;;;;0.17;0.17;;;;;;;25.19;60.56;100409.91;5361328;26;20060;-90
2023/09/04 17:00:48;;;;;;;0.35;0.35;;;;;;;25.03;60.56;100399.66;5312232;26;20055;-91
2023/09/04 17:03:14;;;;;;;0.00;0.00;;;;;;;24.96;60.55;100409.09;5310500;26;20058;-92
2023/09/04 17:05:42;;;;;;;0.00;0.00;;;;;;;24.82;60.54;100413.84;5309693;26;20107;-90
2023/09/04 17:08:07;;;;;;;0.00;0.00;;;;;;;24.76;60.55;100415.19;5327914;26;20060;-92
2023/09/04 17:10:38;;;;;;;0.43;0.22;;;;;;;24.80;60.54;100417.47;5334731;26;20032;-90
2023/09/04 17:13:04;;;;;;;1.75;0.57;;;;;;;24.72;60.54;100419.06;5336461;26;20053;-91
2023/09/04 17:15:31;;;;;;;0.00;0.00;;;;;;;24.58;60.54;100412.16;5311165;26;20111;-92
2023/09/04 17:17:58;;;;;;;3.78;0.40;;;;;;;24.55;60.53;100420.41;5309713;26;20061;-93
2023/09/04 17:20:24;;;;;;;0.00;0.00;;;;;;;24.56;60.53;100411.44;5328883;26;20051;-92